sensor_id;sensor_type;location;lat;lon;timestamp;P1;durP1;ratioP1;P2;durP2;ratioP2
10293;SDS011;5192;50.328;7.610;2023-02-01T00:00:49;5.03;;;4.13;;
10293;SDS011;5192;50.328;7.610;2023-02-01T00:03:17;5.10;;;4.33;;
10293;SDS011;5192;50.328;7.610;2023-02-01T00:05:54;5.60;;;4.00;;
10293;SDS011;5192;50.328;7.610;2023-02-01T00:08:22;6.17;;;4.13;;
10293;SDS011;5192;50.328;7.610;2023-02-01T00:10:48;4.87;;;4.17;;
10293;SDS011;5192;50.328;7.610;2023-02-01T00:13:25;5.10;;;3.97;;
10293;SDS011;5192;50.328;7.610;2023-02-01T00:15:55;4.13;;;3.60;;
10293;SDS011;5192;50.328;7.610;2023-02-01T00:18:26;4.90;;;3.60;;
10293;SDS011;5192;50.328;7.610;2023-02-01T00:20:53;6.47;;;3.87;;
10293;SDS011;5192;50.328;7.610;2023-02-01T00:23:19;5.53;;;4.30;;
10293;SDS011;5192;50.328;7.610;2023-02-01T00:25:47;6.53;;;4.80;;
10293;SDS011;5192;50.328;7.610;2023-02-01T00:28:15;8.70;;;5.40;;
10293;SDS011;5192;50.328;7.610;2023-02-01T00:30:42;7.20;;;5.17;;
10293;SDS011;5192;50.328;7.610;2023-02-01T00:33:07;7.57;;;6.20;;
10293;SDS011;5192;50.328;7.610;2023-02-01T00:35:36;7.70;;;6.23;;
10293;SDS011;5192;50.328;7.610;2023-02-01T00:38:04;7.47;;;6.77;;
10293;SDS011;5192;50.328;7.610;2023-02-01T00:40:32;7.67;;;6.00;;
10293;SDS011;5192;50.328;7.610;2023-02-01T00:43:00;7.83;;;6.97;;
10293;SDS011;5192;50.328;7.610;2023-02-01T00:45:28;8.17;;;7.30;;
10293;SDS011;5192;50.328;7.610;2023-02-01T00:47:55;9.13;;;7.27;;
10293;SDS011;5192;50.328;7.610;2023-02-01T00:50:22;8.67;;;7.87;;
10293;SDS011;5192;50.328;7.610;2023-02-01T00:52:49;8.57;;;7.37;;
10293;SDS011;5192;50.328;7.610;2023-02-01T00:55:18;8.30;;;7.07;;
10293;SDS011;5192;50.328;7.610;2023-02-01T00:57:44;9.07;;;7.13;;
10293;SDS011;5192;50.328;7.610;2023-02-01T01:00:11;9.20;;;7.27;;
10293;SDS011;5192;50.328;7.610;2023-02-01T01:02:37;7.70;;;7.00;;
10293;SDS011;5192;50.328;7.610;2023-02-01T01:05:06;8.50;;;7.27;;
10293;SDS011;5192;50.328;7.610;2023-02-01T01:07:32;9.00;;;7.03;;
10293;SDS011;5192;50.328;7.610;2023-02-01T01:09:58;8.30;;;6.87;;
10293;SDS011;5192;50.328;7.610;2023-02-01T01:12:25;9.83;;;7.77;;
10293;SDS011;5192;50.328;7.610;2023-02-01T01:14:53;10.10;;;7.17;;
10293;SDS011;5192;50.328;7.610;2023-02-01T01:17:21;7.80;;;6.97;;
10293;SDS011;5192;50.328;7.610;2023-02-01T01:19:47;7.13;;;6.17;;
10293;SDS011;5192;50.328;7.610;2023-02-01T01:22:13;8.97;;;6.83;;
10293;SDS011;5192;50.328;7.610;2023-02-01T01:24:40;8.20;;;7.00;;
10293;SDS011;5192;50.328;7.610;2023-02-01T01:27:07;7.73;;;6.03;;
10293;SDS011;5192;50.328;7.610;2023-02-01T01:29:34;7.07;;;6.13;;
10293;SDS011;5192;50.328;7.610;2023-02-01T01:31:59;6.40;;;5.30;;
10293;SDS011;5192;50.328;7.610;2023-02-01T01:34:29;6.20;;;5.60;;
10293;SDS011;5192;50.328;7.610;2023-02-01T01:36:54;9.83;;;5.87;;
10293;SDS011;5192;50.328;7.610;2023-02-01T01:39:21;7.67;;;5.40;;
10293;SDS011;5192;50.328;7.610;2023-02-01T01:41:48;6.40;;;5.50;;
10293;SDS011;5192;50.328;7.610;2023-02-01T01:47:20;7.03;;;4.80;;
10293;SDS011;5192;50.328;7.610;2023-02-01T01:49:48;7.17;;;4.80;;
10293;SDS011;5192;50.328;7.610;2023-02-01T01:52:16;8.07;;;5.20;;
10293;SDS011;5192;50.328;7.610;2023-02-01T01:54:48;8.20;;;4.60;;
10293;SDS011;5192;50.328;7.610;2023-02-01T01:57:23;5.30;;;4.20;;
10293;SDS011;5192;50.328;7.610;2023-02-01T02:00:05;6.67;;;4.17;;
10293;SDS011;5192;50.328;7.610;2023-02-01T02:02:38;6.10;;;4.10;;
10293;SDS011;5192;50.328;7.610;2023-02-01T02:05:06;7.33;;;4.10;;
10293;SDS011;5192;50.328;7.610;2023-02-01T02:07:37;9.93;;;4.50;;
10293;SDS011;5192;50.328;7.610;2023-02-01T02:10:10;9.23;;;4.67;;
10293;SDS011;5192;50.328;7.610;2023-02-01T02:12:38;7.33;;;4.00;;
10293;SDS011;5192;50.328;7.610;2023-02-01T02:15:08;5.57;;;3.63;;
10293;SDS011;5192;50.328;7.610;2023-02-01T02:26:34;5.90;;;4.00;;
10293;SDS011;5192;50.328;7.610;2023-02-01T02:47:52;5.27;;;3.30;;
10293;SDS011;5192;50.328;7.610;2023-02-01T02:50:36;6.03;;;3.87;;
10293;SDS011;5192;50.328;7.610;2023-02-01T02:54:05;7.90;;;3.83;;
10293;SDS011;5192;50.328;7.610;2023-02-01T02:56:40;4.30;;;3.27;;
10293;SDS011;5192;50.328;7.610;2023-02-01T02:59:27;4.90;;;3.60;;
10293;SDS011;5192;50.328;7.610;2023-02-01T03:02:14;4.37;;;3.43;;
10293;SDS011;5192;50.328;7.610;2023-02-01T03:05:00;5.27;;;2.90;;
10293;SDS011;5192;50.328;7.610;2023-02-01T03:10:50;4.67;;;3.27;;
10293;SDS011;5192;50.328;7.610;2023-02-01T03:19:05;8.67;;;3.90;;
10293;SDS011;5192;50.328;7.610;2023-02-01T03:24:51;9.33;;;3.33;;
10293;SDS011;5192;50.328;7.610;2023-02-01T03:30:22;7.30;;;3.20;;
10293;SDS011;5192;50.328;7.610;2023-02-01T03:32:56;9.23;;;3.27;;
10293;SDS011;5192;50.328;7.610;2023-02-01T03:38:20;8.43;;;3.60;;
10293;SDS011;5192;50.328;7.610;2023-02-01T03:46:42;8.37;;;3.00;;
10293;SDS011;5192;50.328;7.610;2023-02-01T03:49:24;8.37;;;3.37;;
10293;SDS011;5192;50.328;7.610;2023-02-01T03:52:15;7.77;;;3.67;;
10293;SDS011;5192;50.328;7.610;2023-02-01T03:54:46;5.77;;;2.67;;
10293;SDS011;5192;50.328;7.610;2023-02-01T03:57:14;8.77;;;3.17;;
10293;SDS011;5192;50.328;7.610;2023-02-01T03:59:47;8.03;;;3.30;;
10293;SDS011;5192;50.328;7.610;2023-02-01T04:02:15;6.53;;;3.17;;
10293;SDS011;5192;50.328;7.610;2023-02-01T04:04:43;8.37;;;3.13;;
10293;SDS011;5192;50.328;7.610;2023-02-01T04:07:10;10.50;;;3.33;;
10293;SDS011;5192;50.328;7.610;2023-02-01T04:09:35;8.20;;;3.17;;
10293;SDS011;5192;50.328;7.610;2023-02-01T04:12:04;6.87;;;2.80;;
10293;SDS011;5192;50.328;7.610;2023-02-01T04:14:32;8.73;;;3.33;;
10293;SDS011;5192;50.328;7.610;2023-02-01T04:16:58;7.93;;;3.57;;
10293;SDS011;5192;50.328;7.610;2023-02-01T04:19:26;10.00;;;3.70;;
10293;SDS011;5192;50.328;7.610;2023-02-01T04:21:53;5.97;;;3.03;;
10293;SDS011;5192;50.328;7.610;2023-02-01T04:24:19;10.37;;;3.20;;
10293;SDS011;5192;50.328;7.610;2023-02-01T04:26:47;10.37;;;3.50;;
10293;SDS011;5192;50.328;7.610;2023-02-01T04:29:16;9.37;;;3.90;;
10293;SDS011;5192;50.328;7.610;2023-02-01T04:31:43;13.67;;;3.67;;
10293;SDS011;5192;50.328;7.610;2023-02-01T04:34:12;9.00;;;3.77;;
10293;SDS011;5192;50.328;7.610;2023-02-01T04:36:39;9.00;;;3.80;;
10293;SDS011;5192;50.328;7.610;2023-02-01T04:39:06;7.93;;;3.90;;
10293;SDS011;5192;50.328;7.610;2023-02-01T04:41:35;8.43;;;3.63;;
10293;SDS011;5192;50.328;7.610;2023-02-01T04:44:02;8.73;;;3.70;;
10293;SDS011;5192;50.328;7.610;2023-02-01T04:46:27;10.07;;;3.83;;
10293;SDS011;5192;50.328;7.610;2023-02-01T04:48:56;10.97;;;4.13;;
10293;SDS011;5192;50.328;7.610;2023-02-01T04:51:22;9.00;;;3.47;;
10293;SDS011;5192;50.328;7.610;2023-02-01T04:53:50;11.77;;;3.87;;
10293;SDS011;5192;50.328;7.610;2023-02-01T04:56:16;12.23;;;3.47;;
10293;SDS011;5192;50.328;7.610;2023-02-01T04:58:43;12.93;;;3.70;;
10293;SDS011;5192;50.328;7.610;2023-02-01T05:01:09;8.13;;;3.73;;
10293;SDS011;5192;50.328;7.610;2023-02-01T05:03:36;12.37;;;4.23;;
10293;SDS011;5192;50.328;7.610;2023-02-01T05:06:03;10.20;;;3.50;;
10293;SDS011;5192;50.328;7.610;2023-02-01T05:08:32;12.47;;;3.77;;
10293;SDS011;5192;50.328;7.610;2023-02-01T05:10:59;10.47;;;3.57;;
10293;SDS011;5192;50.328;7.610;2023-02-01T05:13:29;10.43;;;4.20;;
10293;SDS011;5192;50.328;7.610;2023-02-01T05:16:15;10.97;;;4.63;;
10293;SDS011;5192;50.328;7.610;2023-02-01T05:18:41;11.50;;;4.27;;
10293;SDS011;5192;50.328;7.610;2023-02-01T05:21:08;11.43;;;3.73;;
10293;SDS011;5192;50.328;7.610;2023-02-01T05:23:35;12.17;;;4.13;;
10293;SDS011;5192;50.328;7.610;2023-02-01T05:26:21;8.00;;;4.07;;
10293;SDS011;5192;50.328;7.610;2023-02-01T05:28:48;11.97;;;4.20;;
10293;SDS011;5192;50.328;7.610;2023-02-01T05:31:13;9.93;;;4.30;;
10293;SDS011;5192;50.328;7.610;2023-02-01T05:33:41;13.67;;;4.40;;
10293;SDS011;5192;50.328;7.610;2023-02-01T05:36:07;9.70;;;3.73;;
10293;SDS011;5192;50.328;7.610;2023-02-01T05:38:35;12.77;;;4.97;;
10293;SDS011;5192;50.328;7.610;2023-02-01T05:41:02;10.27;;;4.40;;
10293;SDS011;5192;50.328;7.610;2023-02-01T05:43:29;8.90;;;4.27;;
10293;SDS011;5192;50.328;7.610;2023-02-01T05:45:58;8.97;;;4.13;;
10293;SDS011;5192;50.328;7.610;2023-02-01T05:48:26;16.80;;;4.20;;
10293;SDS011;5192;50.328;7.610;2023-02-01T05:50:55;12.77;;;4.27;;
10293;SDS011;5192;50.328;7.610;2023-02-01T05:53:23;10.43;;;3.50;;
10293;SDS011;5192;50.328;7.610;2023-02-01T05:55:50;9.33;;;3.70;;
10293;SDS011;5192;50.328;7.610;2023-02-01T05:58:18;12.53;;;4.00;;
10293;SDS011;5192;50.328;7.610;2023-02-01T06:00:46;10.00;;;3.77;;
10293;SDS011;5192;50.328;7.610;2023-02-01T06:03:14;12.77;;;3.77;;
10293;SDS011;5192;50.328;7.610;2023-02-01T06:05:45;11.20;;;4.13;;
10293;SDS011;5192;50.328;7.610;2023-02-01T06:08:13;12.00;;;3.80;;
10293;SDS011;5192;50.328;7.610;2023-02-01T06:10:44;11.97;;;4.20;;
10293;SDS011;5192;50.328;7.610;2023-02-01T06:13:12;17.13;;;4.80;;
10293;SDS011;5192;50.328;7.610;2023-02-01T06:15:39;12.90;;;3.60;;
10293;SDS011;5192;50.328;7.610;2023-02-01T06:18:08;11.87;;;3.63;;
10293;SDS011;5192;50.328;7.610;2023-02-01T06:20:35;13.63;;;4.07;;
10293;SDS011;5192;50.328;7.610;2023-02-01T06:23:03;11.60;;;3.67;;
10293;SDS011;5192;50.328;7.610;2023-02-01T06:25:31;14.37;;;3.63;;
10293;SDS011;5192;50.328;7.610;2023-02-01T06:28:01;9.43;;;3.57;;
10293;SDS011;5192;50.328;7.610;2023-02-01T06:30:27;11.63;;;3.33;;
10293;SDS011;5192;50.328;7.610;2023-02-01T06:32:54;10.97;;;3.57;;
10293;SDS011;5192;50.328;7.610;2023-02-01T06:35:21;11.33;;;3.57;;
10293;SDS011;5192;50.328;7.610;2023-02-01T06:37:47;9.53;;;3.53;;
10293;SDS011;5192;50.328;7.610;2023-02-01T06:40:13;12.33;;;3.90;;
10293;SDS011;5192;50.328;7.610;2023-02-01T06:42:41;11.63;;;3.60;;
10293;SDS011;5192;50.328;7.610;2023-02-01T06:45:09;10.63;;;3.30;;
10293;SDS011;5192;50.328;7.610;2023-02-01T06:47:37;10.83;;;3.53;;
10293;SDS011;5192;50.328;7.610;2023-02-01T06:50:05;11.43;;;3.70;;
10293;SDS011;5192;50.328;7.610;2023-02-01T06:52:33;11.40;;;3.77;;
10293;SDS011;5192;50.328;7.610;2023-02-01T06:55:01;8.93;;;3.80;;
10293;SDS011;5192;50.328;7.610;2023-02-01T06:57:28;12.27;;;3.50;;
10293;SDS011;5192;50.328;7.610;2023-02-01T07:00:00;10.20;;;3.73;;
10293;SDS011;5192;50.328;7.610;2023-02-01T07:02:28;6.97;;;3.40;;
10293;SDS011;5192;50.328;7.610;2023-02-01T07:04:56;10.73;;;3.67;;
10293;SDS011;5192;50.328;7.610;2023-02-01T07:07:23;8.67;;;3.50;;
10293;SDS011;5192;50.328;7.610;2023-02-01T07:09:50;10.63;;;3.47;;
10293;SDS011;5192;50.328;7.610;2023-02-01T07:12:16;11.47;;;3.27;;
10293;SDS011;5192;50.328;7.610;2023-02-01T07:14:45;10.47;;;3.73;;
10293;SDS011;5192;50.328;7.610;2023-02-01T07:17:11;10.97;;;3.23;;
10293;SDS011;5192;50.328;7.610;2023-02-01T07:19:39;9.73;;;3.07;;
10293;SDS011;5192;50.328;7.610;2023-02-01T07:22:05;11.90;;;4.20;;
10293;SDS011;5192;50.328;7.610;2023-02-01T07:24:33;11.13;;;3.73;;
10293;SDS011;5192;50.328;7.610;2023-02-01T07:26:59;10.67;;;3.20;;
10293;SDS011;5192;50.328;7.610;2023-02-01T07:29:26;10.57;;;3.47;;
10293;SDS011;5192;50.328;7.610;2023-02-01T07:31:53;11.37;;;3.03;;
10293;SDS011;5192;50.328;7.610;2023-02-01T07:34:19;12.70;;;3.67;;
10293;SDS011;5192;50.328;7.610;2023-02-01T07:36:46;11.00;;;3.97;;
10293;SDS011;5192;50.328;7.610;2023-02-01T07:39:14;9.67;;;3.37;;
10293;SDS011;5192;50.328;7.610;2023-02-01T07:41:41;12.67;;;3.47;;
10293;SDS011;5192;50.328;7.610;2023-02-01T07:44:09;10.57;;;3.70;;
10293;SDS011;5192;50.328;7.610;2023-02-01T07:46:37;13.13;;;3.30;;
10293;SDS011;5192;50.328;7.610;2023-02-01T07:49:05;6.97;;;3.03;;
10293;SDS011;5192;50.328;7.610;2023-02-01T07:51:31;9.97;;;3.27;;
10293;SDS011;5192;50.328;7.610;2023-02-01T07:53:59;11.80;;;3.67;;
10293;SDS011;5192;50.328;7.610;2023-02-01T07:56:25;10.87;;;2.97;;
10293;SDS011;5192;50.328;7.610;2023-02-01T07:58:53;10.70;;;3.13;;
10293;SDS011;5192;50.328;7.610;2023-02-01T08:01:22;11.40;;;3.87;;
10293;SDS011;5192;50.328;7.610;2023-02-01T08:03:56;9.63;;;3.20;;
10293;SDS011;5192;50.328;7.610;2023-02-01T08:06:25;7.30;;;3.07;;
10293;SDS011;5192;50.328;7.610;2023-02-01T08:08:55;11.73;;;3.70;;
10293;SDS011;5192;50.328;7.610;2023-02-01T08:11:22;12.60;;;3.30;;
10293;SDS011;5192;50.328;7.610;2023-02-01T08:13:50;10.40;;;3.13;;
10293;SDS011;5192;50.328;7.610;2023-02-01T08:16:16;11.07;;;3.90;;
10293;SDS011;5192;50.328;7.610;2023-02-01T08:18:48;8.80;;;4.03;;
10293;SDS011;5192;50.328;7.610;2023-02-01T08:21:15;7.33;;;2.90;;
10293;SDS011;5192;50.328;7.610;2023-02-01T08:23:43;9.33;;;3.37;;
10293;SDS011;5192;50.328;7.610;2023-02-01T08:26:11;14.97;;;3.47;;
10293;SDS011;5192;50.328;7.610;2023-02-01T08:28:58;8.97;;;3.43;;
10293;SDS011;5192;50.328;7.610;2023-02-01T08:31:25;10.97;;;3.37;;
10293;SDS011;5192;50.328;7.610;2023-02-01T08:34:02;10.67;;;3.90;;
10293;SDS011;5192;50.328;7.610;2023-02-01T08:36:30;9.47;;;4.13;;
10293;SDS011;5192;50.328;7.610;2023-02-01T08:38:57;9.60;;;3.17;;
10293;SDS011;5192;50.328;7.610;2023-02-01T08:41:24;10.87;;;3.30;;
10293;SDS011;5192;50.328;7.610;2023-02-01T08:43:55;11.83;;;3.87;;
10293;SDS011;5192;50.328;7.610;2023-02-01T08:46:24;9.77;;;3.77;;
10293;SDS011;5192;50.328;7.610;2023-02-01T08:48:52;14.83;;;4.40;;
10293;SDS011;5192;50.328;7.610;2023-02-01T08:51:21;12.90;;;4.27;;
10293;SDS011;5192;50.328;7.610;2023-02-01T08:53:48;11.03;;;3.60;;
10293;SDS011;5192;50.328;7.610;2023-02-01T08:56:15;10.13;;;3.53;;
10293;SDS011;5192;50.328;7.610;2023-02-01T08:58:43;12.77;;;3.60;;
10293;SDS011;5192;50.328;7.610;2023-02-01T09:01:11;12.83;;;3.73;;
10293;SDS011;5192;50.328;7.610;2023-02-01T09:03:42;9.13;;;3.20;;
10293;SDS011;5192;50.328;7.610;2023-02-01T09:06:11;13.07;;;4.03;;
10293;SDS011;5192;50.328;7.610;2023-02-01T09:08:41;10.33;;;3.60;;
10293;SDS011;5192;50.328;7.610;2023-02-01T09:11:09;11.80;;;3.50;;
10293;SDS011;5192;50.328;7.610;2023-02-01T09:13:39;9.13;;;3.10;;
10293;SDS011;5192;50.328;7.610;2023-02-01T09:16:07;12.23;;;3.60;;
10293;SDS011;5192;50.328;7.610;2023-02-01T09:18:36;9.30;;;3.23;;
10293;SDS011;5192;50.328;7.610;2023-02-01T09:21:05;5.50;;;3.10;;
10293;SDS011;5192;50.328;7.610;2023-02-01T09:23:32;10.50;;;3.10;;
10293;SDS011;5192;50.328;7.610;2023-02-01T09:26:00;10.03;;;3.27;;
10293;SDS011;5192;50.328;7.610;2023-02-01T09:28:33;10.73;;;3.47;;
10293;SDS011;5192;50.328;7.610;2023-02-01T09:31:01;8.93;;;3.40;;
10293;SDS011;5192;50.328;7.610;2023-02-01T09:33:29;12.47;;;3.17;;
10293;SDS011;5192;50.328;7.610;2023-02-01T09:36:00;11.87;;;3.63;;
10293;SDS011;5192;50.328;7.610;2023-02-01T09:38:41;7.80;;;2.83;;
10293;SDS011;5192;50.328;7.610;2023-02-01T09:44:28;7.90;;;2.83;;
10293;SDS011;5192;50.328;7.610;2023-02-01T09:46:58;10.87;;;3.10;;
10293;SDS011;5192;50.328;7.610;2023-02-01T09:49:28;10.43;;;3.53;;
10293;SDS011;5192;50.328;7.610;2023-02-01T09:51:57;11.07;;;3.07;;
10293;SDS011;5192;50.328;7.610;2023-02-01T09:54:42;7.90;;;2.63;;
10293;SDS011;5192;50.328;7.610;2023-02-01T09:57:19;11.60;;;3.07;;
10293;SDS011;5192;50.328;7.610;2023-02-01T09:59:57;14.73;;;4.33;;
10293;SDS011;5192;50.328;7.610;2023-02-01T10:02:29;8.53;;;3.27;;
10293;SDS011;5192;50.328;7.610;2023-02-01T10:05:01;8.53;;;3.27;;
10293;SDS011;5192;50.328;7.610;2023-02-01T10:07:51;8.57;;;3.37;;
10293;SDS011;5192;50.328;7.610;2023-02-01T10:10:38;11.27;;;3.33;;
10293;SDS011;5192;50.328;7.610;2023-02-01T10:16:28;11.27;;;3.17;;
10293;SDS011;5192;50.328;7.610;2023-02-01T10:25:39;12.07;;;3.40;;
10293;SDS011;5192;50.328;7.610;2023-02-01T10:28:29;12.47;;;3.80;;
10293;SDS011;5192;50.328;7.610;2023-02-01T10:31:00;9.17;;;3.00;;
10293;SDS011;5192;50.328;7.610;2023-02-01T10:33:37;7.07;;;3.30;;
10293;SDS011;5192;50.328;7.610;2023-02-01T10:39:05;11.80;;;3.40;;
10293;SDS011;5192;50.328;7.610;2023-02-01T10:41:39;10.10;;;3.50;;
10293;SDS011;5192;50.328;7.610;2023-02-01T10:44:11;6.10;;;2.83;;
10293;SDS011;5192;50.328;7.610;2023-02-01T10:46:41;9.23;;;3.40;;
10293;SDS011;5192;50.328;7.610;2023-02-01T10:49:21;7.57;;;3.23;;
10293;SDS011;5192;50.328;7.610;2023-02-01T10:52:05;11.53;;;3.23;;
10293;SDS011;5192;50.328;7.610;2023-02-01T10:54:56;7.93;;;3.00;;
10293;SDS011;5192;50.328;7.610;2023-02-01T10:58:05;10.03;;;3.03;;
10293;SDS011;5192;50.328;7.610;2023-02-01T11:00:49;9.67;;;3.57;;
10293;SDS011;5192;50.328;7.610;2023-02-01T11:03:20;11.50;;;3.23;;
10293;SDS011;5192;50.328;7.610;2023-02-01T11:05:54;10.30;;;3.10;;
10293;SDS011;5192;50.328;7.610;2023-02-01T11:08:24;8.53;;;3.20;;
10293;SDS011;5192;50.328;7.610;2023-02-01T11:10:59;9.67;;;3.27;;
10293;SDS011;5192;50.328;7.610;2023-02-01T11:13:29;13.30;;;3.50;;
10293;SDS011;5192;50.328;7.610;2023-02-01T11:15:58;9.17;;;3.67;;
10293;SDS011;5192;50.328;7.610;2023-02-01T11:18:31;8.30;;;2.93;;
10293;SDS011;5192;50.328;7.610;2023-02-01T11:21:03;8.97;;;3.00;;
10293;SDS011;5192;50.328;7.610;2023-02-01T11:23:31;13.07;;;3.33;;
10293;SDS011;5192;50.328;7.610;2023-02-01T11:26:00;9.67;;;3.43;;
10293;SDS011;5192;50.328;7.610;2023-02-01T11:28:33;11.33;;;3.60;;
10293;SDS011;5192;50.328;7.610;2023-02-01T11:31:11;12.60;;;4.27;;
10293;SDS011;5192;50.328;7.610;2023-02-01T11:33:47;9.90;;;3.00;;
10293;SDS011;5192;50.328;7.610;2023-02-01T11:36:40;9.70;;;3.23;;
10293;SDS011;5192;50.328;7.610;2023-02-01T11:42:30;8.30;;;3.00;;
10293;SDS011;5192;50.328;7.610;2023-02-01T11:44:49;9.17;;;3.40;;
10293;SDS011;5192;50.328;7.610;2023-02-01T11:47:41;10.53;;;3.40;;
10293;SDS011;5192;50.328;7.610;2023-02-01T11:50:17;10.67;;;2.70;;
10293;SDS011;5192;50.328;7.610;2023-02-01T11:53:07;9.17;;;3.00;;
10293;SDS011;5192;50.328;7.610;2023-02-01T12:01:57;7.67;;;2.87;;
10293;SDS011;5192;50.328;7.610;2023-02-01T12:11:11;9.77;;;3.17;;
10293;SDS011;5192;50.328;7.610;2023-02-01T12:17:11;9.77;;;3.00;;
10293;SDS011;5192;50.328;7.610;2023-02-01T12:26:22;8.20;;;2.93;;
10293;SDS011;5192;50.328;7.610;2023-02-01T12:33:18;8.10;;;3.60;;
10293;SDS011;5192;50.328;7.610;2023-02-01T12:38:48;10.07;;;2.77;;
10293;SDS011;5192;50.328;7.610;2023-02-01T12:41:41;9.63;;;3.13;;
10293;SDS011;5192;50.328;7.610;2023-02-01T12:44:55;10.43;;;2.87;;
10293;SDS011;5192;50.328;7.610;2023-02-01T12:50:55;9.67;;;2.60;;
10293;SDS011;5192;50.328;7.610;2023-02-01T12:59:38;10.77;;;2.83;;
10293;SDS011;5192;50.328;7.610;2023-02-01T13:02:38;9.00;;;3.37;;
10293;SDS011;5192;50.328;7.610;2023-02-01T13:05:45;8.97;;;2.53;;
10293;SDS011;5192;50.328;7.610;2023-02-01T13:08:19;8.23;;;3.13;;
10293;SDS011;5192;50.328;7.610;2023-02-01T13:11:04;9.40;;;3.03;;
10293;SDS011;5192;50.328;7.610;2023-02-01T13:16:52;6.17;;;2.50;;
10293;SDS011;5192;50.328;7.610;2023-02-01T13:19:45;5.90;;;2.27;;
10293;SDS011;5192;50.328;7.610;2023-02-01T13:22:22;8.43;;;2.93;;
10293;SDS011;5192;50.328;7.610;2023-02-01T13:25:26;8.57;;;2.87;;
10293;SDS011;5192;50.328;7.610;2023-02-01T13:28:15;11.90;;;3.10;;
10293;SDS011;5192;50.328;7.610;2023-02-01T13:40:16;7.60;;;2.57;;
10293;SDS011;5192;50.328;7.610;2023-02-01T13:43:09;10.37;;;3.27;;
10293;SDS011;5192;50.328;7.610;2023-02-01T13:45:50;9.47;;;3.30;;
10293;SDS011;5192;50.328;7.610;2023-02-01T13:51:31;10.00;;;3.20;;
10293;SDS011;5192;50.328;7.610;2023-02-01T13:53:57;10.77;;;3.10;;
10293;SDS011;5192;50.328;7.610;2023-02-01T13:56:27;10.50;;;2.70;;
10293;SDS011;5192;50.328;7.610;2023-02-01T13:58:54;9.33;;;2.33;;
10293;SDS011;5192;50.328;7.610;2023-02-01T14:03:57;5.83;;;2.10;;
10293;SDS011;5192;50.328;7.610;2023-02-01T14:09:17;8.30;;;2.23;;
10293;SDS011;5192;50.328;7.610;2023-02-01T14:11:57;11.27;;;2.30;;
10293;SDS011;5192;50.328;7.610;2023-02-01T14:14:48;9.63;;;2.60;;
10293;SDS011;5192;50.328;7.610;2023-02-01T14:19:49;6.60;;;2.53;;
10293;SDS011;5192;50.328;7.610;2023-02-01T14:23:08;8.70;;;2.23;;
10293;SDS011;5192;50.328;7.610;2023-02-01T14:25:42;8.33;;;2.23;;
10293;SDS011;5192;50.328;7.610;2023-02-01T14:28:31;5.83;;;2.23;;
10293;SDS011;5192;50.328;7.610;2023-02-01T14:30:58;8.63;;;2.20;;
10293;SDS011;5192;50.328;7.610;2023-02-01T14:33:40;7.33;;;2.20;;
10293;SDS011;5192;50.328;7.610;2023-02-01T14:36:11;6.80;;;2.80;;
10293;SDS011;5192;50.328;7.610;2023-02-01T14:38:39;8.00;;;2.53;;
10293;SDS011;5192;50.328;7.610;2023-02-01T14:49:54;8.53;;;2.33;;
10293;SDS011;5192;50.328;7.610;2023-02-01T14:52:43;7.60;;;2.20;;
10293;SDS011;5192;50.328;7.610;2023-02-01T15:01:03;10.00;;;2.23;;
10293;SDS011;5192;50.328;7.610;2023-02-01T15:06:54;6.50;;;2.63;;
10293;SDS011;5192;50.328;7.610;2023-02-01T15:09:34;9.07;;;2.23;;
10293;SDS011;5192;50.328;7.610;2023-02-01T15:17:53;7.40;;;2.47;;
10293;SDS011;5192;50.328;7.610;2023-02-01T15:20:39;8.47;;;2.60;;
10293;SDS011;5192;50.328;7.610;2023-02-01T15:23:15;6.80;;;2.27;;
10293;SDS011;5192;50.328;7.610;2023-02-01T15:25:45;7.17;;;2.13;;
10293;SDS011;5192;50.328;7.610;2023-02-01T15:28:22;8.13;;;2.50;;
10293;SDS011;5192;50.328;7.610;2023-02-01T15:31:00;7.60;;;2.30;;
10293;SDS011;5192;50.328;7.610;2023-02-01T15:33:31;7.60;;;2.67;;
10293;SDS011;5192;50.328;7.610;2023-02-01T15:38:49;8.67;;;2.63;;
10293;SDS011;5192;50.328;7.610;2023-02-01T15:41:48;7.27;;;2.30;;
10293;SDS011;5192;50.328;7.610;2023-02-01T15:44:39;11.17;;;3.30;;
10293;SDS011;5192;50.328;7.610;2023-02-01T15:47:16;6.13;;;1.93;;
10293;SDS011;5192;50.328;7.610;2023-02-01T15:49:47;8.37;;;2.40;;
10293;SDS011;5192;50.328;7.610;2023-02-01T15:58:07;5.67;;;2.17;;
10293;SDS011;5192;50.328;7.610;2023-02-01T16:00:50;8.43;;;2.80;;
10293;SDS011;5192;50.328;7.610;2023-02-01T16:09:53;10.63;;;2.60;;
10293;SDS011;5192;50.328;7.610;2023-02-01T16:12:46;6.60;;;2.40;;
10293;SDS011;5192;50.328;7.610;2023-02-01T16:15:13;7.23;;;2.30;;
10293;SDS011;5192;50.328;7.610;2023-02-01T16:17:40;9.10;;;2.53;;
10293;SDS011;5192;50.328;7.610;2023-02-01T16:20:23;9.47;;;2.00;;
10293;SDS011;5192;50.328;7.610;2023-02-01T16:22:52;7.03;;;2.67;;
10293;SDS011;5192;50.328;7.610;2023-02-01T16:25:20;3.83;;;2.17;;
10293;SDS011;5192;50.328;7.610;2023-02-01T16:27:47;8.70;;;2.23;;
10293;SDS011;5192;50.328;7.610;2023-02-01T16:30:17;6.47;;;2.20;;
10293;SDS011;5192;50.328;7.610;2023-02-01T16:35:38;4.47;;;2.13;;
10293;SDS011;5192;50.328;7.610;2023-02-01T16:40:48;8.87;;;2.60;;
10293;SDS011;5192;50.328;7.610;2023-02-01T16:45:45;6.30;;;2.00;;
10293;SDS011;5192;50.328;7.610;2023-02-01T16:50:58;10.10;;;2.70;;
10293;SDS011;5192;50.328;7.610;2023-02-01T16:53:30;8.43;;;2.27;;
10293;SDS011;5192;50.328;7.610;2023-02-01T16:55:57;7.67;;;2.10;;
10293;SDS011;5192;50.328;7.610;2023-02-01T16:58:25;6.67;;;2.20;;
10293;SDS011;5192;50.328;7.610;2023-02-01T17:00:55;11.60;;;3.20;;
10293;SDS011;5192;50.328;7.610;2023-02-01T17:03:22;8.80;;;2.80;;
10293;SDS011;5192;50.328;7.610;2023-02-01T17:05:52;7.53;;;2.17;;
10293;SDS011;5192;50.328;7.610;2023-02-01T17:08:34;7.40;;;2.30;;
10293;SDS011;5192;50.328;7.610;2023-02-01T17:11:04;7.00;;;2.60;;
10293;SDS011;5192;50.328;7.610;2023-02-01T17:13:31;9.60;;;3.53;;
10293;SDS011;5192;50.328;7.610;2023-02-01T17:16:02;10.07;;;2.40;;
10293;SDS011;5192;50.328;7.610;2023-02-01T17:18:33;8.23;;;2.83;;
10293;SDS011;5192;50.328;7.610;2023-02-01T17:21:01;7.30;;;2.20;;
10293;SDS011;5192;50.328;7.610;2023-02-01T17:23:32;11.73;;;2.53;;
10293;SDS011;5192;50.328;7.610;2023-02-01T17:25:58;11.53;;;3.23;;
10293;SDS011;5192;50.328;7.610;2023-02-01T17:28:26;6.43;;;2.50;;
10293;SDS011;5192;50.328;7.610;2023-02-01T17:30:54;9.30;;;2.60;;
10293;SDS011;5192;50.328;7.610;2023-02-01T17:36:12;8.47;;;2.60;;
10293;SDS011;5192;50.328;7.610;2023-02-01T17:38:41;12.90;;;3.33;;
10293;SDS011;5192;50.328;7.610;2023-02-01T17:41:09;7.93;;;3.20;;
10293;SDS011;5192;50.328;7.610;2023-02-01T17:43:38;10.87;;;3.50;;
10293;SDS011;5192;50.328;7.610;2023-02-01T17:46:13;9.07;;;2.90;;
10293;SDS011;5192;50.328;7.610;2023-02-01T17:48:41;8.73;;;3.00;;
10293;SDS011;5192;50.328;7.610;2023-02-01T17:51:17;9.43;;;2.50;;
10293;SDS011;5192;50.328;7.610;2023-02-01T17:53:45;9.63;;;2.70;;
10293;SDS011;5192;50.328;7.610;2023-02-01T17:56:18;8.13;;;2.97;;
10293;SDS011;5192;50.328;7.610;2023-02-01T17:59:01;6.47;;;2.63;;
10293;SDS011;5192;50.328;7.610;2023-02-01T18:01:29;6.97;;;2.63;;
10293;SDS011;5192;50.328;7.610;2023-02-01T18:03:56;12.27;;;3.13;;
10293;SDS011;5192;50.328;7.610;2023-02-01T18:06:24;10.23;;;2.97;;
10293;SDS011;5192;50.328;7.610;2023-02-01T18:08:52;13.97;;;3.20;;
10293;SDS011;5192;50.328;7.610;2023-02-01T18:11:22;8.27;;;3.50;;
10293;SDS011;5192;50.328;7.610;2023-02-01T18:14:05;7.77;;;2.53;;
10293;SDS011;5192;50.328;7.610;2023-02-01T18:16:32;10.47;;;2.83;;
10293;SDS011;5192;50.328;7.610;2023-02-01T18:18:58;11.53;;;4.10;;
10293;SDS011;5192;50.328;7.610;2023-02-01T18:21:29;8.83;;;2.60;;
10293;SDS011;5192;50.328;7.610;2023-02-01T18:24:02;6.70;;;3.03;;
10293;SDS011;5192;50.328;7.610;2023-02-01T18:26:33;7.80;;;2.67;;
10293;SDS011;5192;50.328;7.610;2023-02-01T18:29:02;9.40;;;3.00;;
10293;SDS011;5192;50.328;7.610;2023-02-01T18:31:29;11.57;;;3.13;;
10293;SDS011;5192;50.328;7.610;2023-02-01T18:33:58;8.57;;;3.10;;